Abbotsford, Wisconsin
Current Conditions -  °F | °C
As of 10:15 AM on Saturday 25 Oct 2014 (Local Time) from KMDZ Reporting Station
Clear Clear  
Wind Chill: 51°   Ceiling: Unl
Heat Index: 51°   Visibility: 10mi
Dew Point: 35°   Wind: 14mph
Humidity: 55%   Direction: 300°WNW
Pressure: 29.92"   Gusts: 22mph
Location:  44.95°N, 90.32°W
Report Text: KMDZ 251515Z AUTO 30012G19KT 10SM CLR 11/02 A2992 RMK AO2 T01060019
Loading
Personal Weather Stations






























Interactive Weather Map
Tropical Storm Tracking
New forecast layout! Learn more

10-Day Weather Forecast

Advertisements
Track Severe Weather on mobile